LiveATC.Net - Listen to live air traffic control over the Internet!


ICAO: I35  IATA: I35   Airport: Tucker-Guthrie Memorial Airport
City: Harlan   State/Province: Kentucky
Country: United States   Continent: North America
KI35 METAR Weather: KI35 170915Z AUTO 00000KT 2 1/2SM BKN031 BKN039 OVC065 20/20 A3016 RMK AO2 T02030201
I35 Flight Activity (FlightAware)

I35 CTAF/ZID
Feed Status: UP   Listeners: 0
Listen right in your browser - requires Flash (in browser, requires Flash)
Click here to listen with your own player (launches your MP3 player)
I35 CTAF/ZID Audio Archives
FacilityFrequency
Harlan CTAF122.800
Indy Center (Sector 21 London Low)121.325
Indy Center (Sector 21 London Low)124.625
Indy Center (Sector 25 AZQ Low)126.575

NOTICE

Unauthorized use prohibited. See LiveATC.net Terms of Service


Find LiveATC Audio Streams


Airport/ARTCC Code

Frequency Search
(e.g., 124.400, 128.75)
Site-wide search
 


Browse LiveATC Feeds
Top 50 LiveATC Feeds
Bad Weather Areas

LiveATC FAQ
Offer a LiveATC Feed
Contact LiveATC.net
Press Inquiries

LiveATC on iPhone
LiveATC on Android

Windows Phone
Windows 8/10

LiveATC Mobile
(Mobile browser)

ATC Audio Archives
Interesting Recordings

LiveATC Forums


Home Page
About LiveATC.net
Make a Donation
Terms of Use
Privacy Policy

Canadian Air Freqs

AIRMETs/SIGMETs

FAA Airport Status
Nat'l Airspace Status
Arrival Demand Charts


Server Software By:
Icecast.org
Liquidsoap